createdAt,value
2022-08-09T00:01:39.915Z,18.17
2022-08-09T00:04:34.111Z,18.59
2022-08-09T00:07:07.800Z,18.44
2022-08-09T00:09:38.850Z,18.46
2022-08-09T00:12:06.490Z,18.39
2022-08-09T00:14:37.994Z,18.49
2022-08-09T00:17:06.519Z,18.36
2022-08-09T00:19:34.090Z,18.42
2022-08-09T00:22:03.571Z,18.17
2022-08-09T00:24:32.193Z,18.37
2022-08-09T00:27:00.604Z,18.41
2022-08-09T00:29:39.475Z,18.35
2022-08-09T00:32:25.767Z,18.40
2022-08-09T00:34:55.452Z,18.43
2022-08-09T00:37:22.474Z,18.34
2022-08-09T00:40:12.668Z,18.29
2022-08-09T00:44:10.531Z,18.13
2022-08-09T00:45:25.314Z,17.68
2022-08-09T00:47:52.655Z,18.11
2022-08-09T00:50:23.711Z,18.03
2022-08-09T00:52:52.764Z,17.30
2022-08-09T00:56:03.831Z,18.17
2022-08-09T00:58:09.111Z,17.94
2022-08-09T01:00:40.758Z,18.22
2022-08-09T01:03:16.928Z,17.77
2022-08-09T01:05:57.114Z,18.23
2022-08-09T01:08:45.661Z,18.11
2022-08-09T01:11:23.980Z,18.11
2022-08-09T01:14:10.004Z,17.96
2022-08-09T01:16:47.276Z,18.04
2022-08-09T01:19:42.475Z,18.01
2022-08-09T01:22:21.636Z,17.94
2022-08-09T01:25:08.870Z,17.63
2022-08-09T01:27:41.897Z,17.87
2022-08-09T01:30:35.371Z,17.94
2022-08-09T01:32:59.506Z,17.88
2022-08-09T01:35:51.964Z,17.88
2022-08-09T01:38:24.527Z,17.33
2022-08-09T01:41:06.366Z,17.90
2022-08-09T01:43:51.187Z,17.94
2022-08-09T01:46:25.117Z,17.13
2022-08-09T01:48:59.883Z,17.89
2022-08-09T01:51:32.410Z,17.98
2022-08-09T01:54:04.015Z,18.06
2022-08-09T01:56:33.411Z,18.02
2022-08-09T01:59:06.531Z,17.77
2022-08-09T02:01:58.253Z,17.50
2022-08-09T02:04:24.918Z,17.87
2022-08-09T02:07:18.175Z,17.43
2022-08-09T02:10:16.245Z,16.69
2022-08-09T02:12:47.166Z,17.82
2022-08-09T02:15:18.584Z,17.50
2022-08-09T02:18:01.196Z,17.83
2022-08-09T02:20:45.270Z,17.88
2022-08-09T02:23:42.644Z,17.96
2022-08-09T02:26:25.180Z,16.90
2022-08-09T02:28:59.668Z,17.77
2022-08-09T02:31:35.503Z,17.85
2022-08-09T02:34:40.129Z,17.75
2022-08-09T02:37:12.019Z,17.82
2022-08-09T02:39:49.945Z,17.66
2022-08-09T02:42:33.985Z,17.79
2022-08-09T02:45:06.581Z,17.75
2022-08-09T02:47:57.189Z,17.87
2022-08-09T02:50:29.315Z,17.79
2022-08-09T02:53:09.825Z,17.65
2022-08-09T02:55:58.245Z,17.73
2022-08-09T02:58:32.946Z,17.86
2022-08-09T03:01:08.073Z,17.74
2022-08-09T03:04:18.089Z,17.56
2022-08-09T03:06:29.126Z,17.53
2022-08-09T03:08:57.503Z,17.29
2022-08-09T03:12:04.758Z,17.37
2022-08-09T03:14:13.592Z,17.68
2022-08-09T03:16:47.739Z,17.28
2022-08-09T03:19:59.312Z,17.86
2022-08-09T03:22:12.195Z,17.65
2022-08-09T03:25:06.199Z,17.90
2022-08-09T03:27:45.482Z,18.06
2022-08-09T03:30:23.700Z,17.87
2022-08-09T03:33:17.187Z,17.75
2022-08-09T03:36:12.736Z,17.91
2022-08-09T03:38:35.799Z,17.89
2022-08-09T03:41:04.517Z,17.95
2022-08-09T03:43:33.160Z,17.79
2022-08-09T03:46:20.633Z,17.99
2022-08-09T03:48:55.211Z,17.86
2022-08-09T03:51:56.771Z,18.08
2022-08-09T03:54:11.642Z,18.08
2022-08-09T03:56:41.931Z,17.90
2022-08-09T03:59:13.656Z,18.18
2022-08-09T04:01:45.685Z,17.98
2022-08-09T04:04:14.836Z,18.22
2022-08-09T04:06:48.827Z,18.15
2022-08-09T04:09:48.250Z,18.31
2022-08-09T04:12:40.393Z,18.37
2022-08-09T04:15:11.549Z,18.32
2022-08-09T04:17:45.143Z,18.32
2022-08-09T04:20:16.001Z,18.40
2022-08-09T04:22:44.735Z,18.37
2022-08-09T04:25:12.890Z,18.43
2022-08-09T04:27:49.101Z,18.41
2022-08-09T04:30:23.315Z,18.51
2022-08-09T04:32:54.220Z,17.98
2022-08-09T04:35:21.599Z,18.41
2022-08-09T04:37:50.079Z,18.48
2022-08-09T04:40:19.658Z,18.39
2022-08-09T04:43:03.592Z,18.50
2022-08-09T04:45:31.064Z,18.32
2022-08-09T04:48:06.674Z,18.48
2022-08-09T04:50:37.795Z,18.52
2022-08-09T04:53:13.196Z,18.13
2022-08-09T04:55:57.840Z,18.53
2022-08-09T04:58:29.054Z,18.47
2022-08-09T05:01:00.174Z,18.01
2022-08-09T05:03:41.157Z,18.06
2022-08-09T05:06:25.825Z,18.44
2022-08-09T05:09:00.574Z,18.51
2022-08-09T05:11:32.501Z,18.62
2022-08-09T05:14:06.187Z,18.61
2022-08-09T05:16:57.955Z,18.48
2022-08-09T05:19:25.648Z,17.95
2022-08-09T05:21:55.591Z,18.61
2022-08-09T05:24:24.890Z,18.22
2022-08-09T05:26:52.966Z,18.71
2022-08-09T05:29:22.107Z,18.76
2022-08-09T05:31:58.874Z,18.53
2022-08-09T05:34:30.936Z,18.61
2022-08-09T05:37:06.313Z,18.32
2022-08-09T05:39:42.863Z,18.85
2022-08-09T05:42:21.309Z,18.37
2022-08-09T05:44:54.132Z,18.88
2022-08-09T05:47:23.174Z,18.97
2022-08-09T05:50:29.862Z,19.03
2022-08-09T05:52:40.259Z,18.95
2022-08-09T05:55:10.962Z,19.06
2022-08-09T05:57:57.001Z,19.04
2022-08-09T06:00:32.849Z,19.07
2022-08-09T06:03:02.439Z,19.02
2022-08-09T06:05:54.732Z,19.23
2022-08-09T06:08:24.693Z,19.27
2022-08-09T06:10:54.018Z,19.20
2022-08-09T06:13:21.716Z,18.96
2022-08-09T06:15:51.576Z,19.28
2022-08-09T06:18:24.973Z,19.41
2022-08-09T06:20:57.446Z,19.26
2022-08-09T06:23:55.056Z,19.19
2022-08-09T06:26:21.010Z,19.63
2022-08-09T06:28:59.986Z,19.80
2022-08-09T06:31:39.377Z,19.82
2022-08-09T06:34:17.921Z,19.76
2022-08-09T06:36:45.351Z,19.86
2022-08-09T06:39:12.774Z,19.59
2022-08-09T06:42:08.886Z,19.77
2022-08-09T06:44:27.447Z,19.74
2022-08-09T06:46:55.410Z,19.68
2022-08-09T06:49:44.697Z,19.69
2022-08-09T06:52:12.133Z,19.24
2022-08-09T06:54:43.039Z,19.70
2022-08-09T06:57:12.090Z,19.66
2022-08-09T07:00:51.427Z,19.39
2022-08-09T07:02:32.086Z,19.34
2022-08-09T07:05:00.353Z,19.72
2022-08-09T07:07:59.060Z,19.92
2022-08-09T07:10:29.451Z,19.98
2022-08-09T07:12:59.523Z,19.19
2022-08-09T07:16:38.468Z,20.01
2022-08-09T07:18:15.022Z,20.08
2022-08-09T07:20:43.763Z,19.84
2022-08-09T07:23:19.384Z,20.01
2022-08-09T07:25:52.117Z,19.90
2022-08-09T07:28:28.014Z,19.75
2022-08-09T07:30:56.201Z,19.85
2022-08-09T07:33:23.453Z,19.73
2022-08-09T07:35:53.982Z,19.53
2022-08-09T07:38:23.420Z,19.77
2022-08-09T07:41:00.475Z,19.93
2022-08-09T07:43:49.639Z,19.72
2022-08-09T07:46:19.510Z,19.45
2022-08-09T07:48:52.844Z,19.91
2022-08-09T07:52:04.922Z,19.90
2022-08-09T07:54:14.172Z,20.04
2022-08-09T07:56:48.682Z,20.07
2022-08-09T07:59:34.735Z,19.28
2022-08-09T08:02:09.132Z,20.19
2022-08-09T08:04:37.216Z,19.71
2022-08-09T08:07:21.594Z,20.08
2022-08-09T08:09:55.065Z,20.54
2022-08-09T08:12:36.989Z,20.35
2022-08-09T08:15:10.065Z,19.95
2022-08-09T08:17:53.806Z,20.31
2022-08-09T08:20:29.272Z,20.34
2022-08-09T08:23:01.660Z,20.36
2022-08-09T08:25:40.169Z,20.34
2022-08-09T08:28:14.399Z,20.35
2022-08-09T08:30:47.532Z,20.40
2022-08-09T08:33:22.799Z,20.52
2022-08-09T08:35:59.228Z,20.77
2022-08-09T08:38:29.389Z,20.05
2022-08-09T08:40:57.953Z,20.64
2022-08-09T08:43:27.370Z,20.56
2022-08-09T08:46:09.934Z,20.65
2022-08-09T08:48:51.186Z,20.67
2022-08-09T08:51:19.176Z,20.70
2022-08-09T08:54:03.032Z,20.71
2022-08-09T08:56:39.679Z,20.76
2022-08-09T08:59:19.795Z,20.73
2022-08-09T09:01:52.808Z,20.85
2022-08-09T09:04:37.872Z,21.06
2022-08-09T09:07:15.530Z,20.86
2022-08-09T09:10:02.000Z,20.35
2022-08-09T09:12:34.265Z,20.34
2022-08-09T09:15:05.467Z,20.77
2022-08-09T09:17:51.760Z,20.69
2022-08-09T09:20:20.691Z,20.77
2022-08-09T09:22:53.039Z,20.96
2022-08-09T09:26:02.013Z,20.69
2022-08-09T09:29:03.073Z,21.03
2022-08-09T09:32:04.703Z,21.00
2022-08-09T09:34:14.223Z,20.67
2022-08-09T09:36:52.766Z,21.06
2022-08-09T09:39:54.939Z,21.04
2022-08-09T09:42:29.677Z,20.76
2022-08-09T09:45:04.341Z,21.20
2022-08-09T09:47:32.501Z,21.27
2022-08-09T09:50:15.033Z,21.19
2022-08-09T09:52:56.234Z,21.20
2022-08-09T09:55:32.001Z,21.08
2022-08-09T09:58:18.077Z,21.70
2022-08-09T10:00:55.823Z,21.14
2022-08-09T10:03:57.818Z,21.57
2022-08-09T10:06:42.853Z,21.44
2022-08-09T10:09:23.284Z,20.79
2022-08-09T10:12:14.614Z,21.25
2022-08-09T10:14:50.080Z,20.76
2022-08-09T10:17:39.546Z,21.28
2022-08-09T10:20:32.256Z,21.39
2022-08-09T10:23:16.988Z,21.10
2022-08-09T10:26:07.375Z,21.44
2022-08-09T10:28:34.413Z,21.43
2022-08-09T10:34:10.917Z,21.20
2022-08-09T10:36:38.208Z,21.35
2022-08-09T10:39:05.952Z,21.46
2022-08-09T10:41:43.444Z,21.45
2022-08-09T10:44:10.861Z,20.85
2022-08-09T10:47:01.143Z,21.78
2022-08-09T10:49:51.346Z,21.74
2022-08-09T10:53:05.236Z,22.12
2022-08-09T10:55:55.008Z,22.07
2022-08-09T10:58:37.117Z,21.70
2022-08-09T11:03:02.503Z,22.29
2022-08-09T11:04:28.088Z,22.54
2022-08-09T11:07:01.214Z,22.62
2022-08-09T11:09:37.655Z,22.73
2022-08-09T11:12:13.470Z,22.52
2022-08-09T11:14:51.206Z,22.65
2022-08-09T11:17:19.300Z,22.60
2022-08-09T11:20:08.115Z,22.22
2022-08-09T11:22:40.553Z,22.42
2022-08-09T11:25:47.709Z,22.59
2022-08-09T11:28:34.574Z,22.37
2022-08-09T11:31:52.741Z,22.75
2022-08-09T11:34:52.330Z,22.67
2022-08-09T11:37:40.697Z,22.70
2022-08-09T11:40:12.127Z,22.72
2022-08-09T11:42:48.492Z,22.69
2022-08-09T11:45:21.617Z,22.99
2022-08-09T11:47:52.890Z,22.75
2022-08-09T11:50:53.273Z,22.90
2022-08-09T11:53:55.095Z,22.87
2022-08-09T11:56:02.515Z,23.11
2022-08-09T11:58:32.946Z,23.02
2022-08-09T12:01:15.427Z,23.05
2022-08-09T12:04:01.040Z,22.94
2022-08-09T12:06:32.876Z,22.86
2022-08-09T12:09:19.259Z,22.36
2022-08-09T12:12:03.565Z,22.82
2022-08-09T12:14:40.996Z,22.89
2022-08-09T12:17:33.876Z,23.06
2022-08-09T12:20:22.792Z,23.28
2022-08-09T12:22:56.175Z,23.01
2022-08-09T12:25:37.685Z,23.04
2022-08-09T12:29:14.626Z,22.91
2022-08-09T12:31:10.715Z,22.45
2022-08-09T12:33:58.616Z,22.73
2022-08-09T12:36:32.372Z,22.68
2022-08-09T12:39:01.729Z,22.77
2022-08-09T12:41:38.114Z,22.83
2022-08-09T12:44:08.014Z,22.80
2022-08-09T12:46:49.199Z,22.87
2022-08-09T12:49:18.319Z,22.58
2022-08-09T12:52:02.465Z,22.98
2022-08-09T12:56:11.029Z,23.07
2022-08-09T12:57:49.345Z,22.83
2022-08-09T13:00:25.603Z,22.44
2022-08-09T13:03:02.605Z,22.35
2022-08-09T13:05:52.420Z,23.06
2022-08-09T13:08:40.582Z,22.78
2022-08-09T13:11:13.273Z,22.59
2022-08-09T13:14:40.806Z,22.38
2022-08-09T13:16:46.250Z,23.01
2022-08-09T13:19:25.113Z,22.97
2022-08-09T13:22:37.765Z,23.02
2022-08-09T13:25:07.491Z,22.91
2022-08-09T13:27:39.566Z,22.61
2022-08-09T13:30:50.763Z,22.75
2022-08-09T13:33:11.653Z,22.89
2022-08-09T13:36:24.592Z,22.81
2022-08-09T13:38:54.305Z,22.44
2022-08-09T13:41:46.732Z,23.02
2022-08-09T13:44:00.497Z,22.88
2022-08-09T13:47:17.834Z,22.96
2022-08-09T13:49:19.416Z,22.80
2022-08-09T13:51:59.685Z,22.91
2022-08-09T13:54:30.177Z,22.79
2022-08-09T13:56:58.062Z,22.87
2022-08-09T13:59:25.988Z,22.70
2022-08-09T14:02:08.761Z,22.42
2022-08-09T14:04:37.122Z,22.78
2022-08-09T14:07:04.497Z,22.26
2022-08-09T14:09:34.717Z,22.95
2022-08-09T14:12:06.132Z,22.77
2022-08-09T14:14:43.996Z,22.73
2022-08-09T14:17:13.111Z,22.34
2022-08-09T14:19:44.037Z,22.76
2022-08-09T14:22:11.887Z,22.77
2022-08-09T14:24:46.956Z,22.72
2022-08-09T14:27:21.337Z,22.64
2022-08-09T14:30:34.620Z,22.39
2022-08-09T14:32:35.308Z,22.54
2022-08-09T14:35:07.012Z,22.45
2022-08-09T14:38:01.435Z,22.42
2022-08-09T14:40:38.877Z,21.91
2022-08-09T14:43:08.220Z,22.49
2022-08-09T14:46:55.820Z,22.42
2022-08-09T14:48:22.350Z,22.48
2022-08-09T14:50:53.850Z,22.44
2022-08-09T14:53:22.025Z,22.42
2022-08-09T14:55:50.640Z,22.06
2022-08-09T14:58:18.609Z,22.07
2022-08-09T15:00:48.550Z,22.45
2022-08-09T15:03:20.665Z,21.87
2022-08-09T15:05:52.552Z,21.49
2022-08-09T15:08:25.387Z,22.08
2022-08-09T15:11:01.347Z,22.32
2022-08-09T15:13:48.622Z,22.22
2022-08-09T15:16:19.817Z,22.14
2022-08-09T15:18:49.014Z,22.33
2022-08-09T15:21:55.525Z,22.34
2022-08-09T15:24:12.146Z,22.23
2022-08-09T15:26:45.892Z,22.16
2022-08-09T15:30:48.558Z,22.25
2022-08-09T15:32:02.050Z,22.17
2022-08-09T15:34:34.397Z,22.33
2022-08-09T15:37:23.820Z,21.79
2022-08-09T15:39:54.842Z,22.26
2022-08-09T15:42:22.518Z,22.09
2022-08-09T15:44:51.066Z,21.73
2022-08-09T15:47:22.305Z,22.12
2022-08-09T15:50:03.523Z,22.15
2022-08-09T15:52:37.120Z,21.97
2022-08-09T15:55:06.828Z,22.10
2022-08-09T15:57:44.348Z,21.76
2022-08-09T16:00:26.132Z,22.03
2022-08-09T16:02:56.460Z,21.96
2022-08-09T16:05:47.226Z,21.91
2022-08-09T16:08:30.543Z,21.92
2022-08-09T16:11:01.405Z,21.75
2022-08-09T16:14:02.754Z,21.42
2022-08-09T16:16:18.807Z,21.72
2022-08-09T16:18:47.696Z,21.82
2022-08-09T16:21:16.909Z,21.67
2022-08-09T16:23:50.803Z,21.66
2022-08-09T16:26:34.707Z,21.64
2022-08-09T16:29:12.645Z,21.74
2022-08-09T16:32:19.479Z,21.24
2022-08-09T16:34:55.063Z,21.43
2022-08-09T16:37:55.510Z,21.53
2022-08-09T16:40:09.886Z,21.74
2022-08-09T16:42:38.696Z,21.41
2022-08-09T16:45:08.038Z,20.71
2022-08-09T16:48:41.365Z,21.01
2022-08-09T16:50:32.429Z,20.60
2022-08-09T16:53:01.719Z,21.34
2022-08-09T16:55:31.450Z,21.19
2022-08-09T16:58:17.384Z,20.87
2022-08-09T17:00:46.698Z,20.76
2022-08-09T17:03:21.631Z,21.21
2022-08-09T17:06:06.854Z,21.18
2022-08-09T17:08:59.004Z,21.17
2022-08-09T17:11:40.076Z,20.71
2022-08-09T17:14:26.283Z,20.99
2022-08-09T17:17:01.985Z,21.08
2022-08-09T17:19:46.717Z,20.53
2022-08-09T17:22:35.861Z,20.93
2022-08-09T17:25:10.317Z,20.87
2022-08-09T17:27:49.157Z,20.76
2022-08-09T17:30:22.546Z,20.81
2022-08-09T17:32:53.337Z,20.25
2022-08-09T17:35:20.492Z,20.37
2022-08-09T17:38:12.111Z,20.72
2022-08-09T17:40:35.501Z,20.66
2022-08-09T17:43:32.538Z,20.58
2022-08-09T17:46:04.059Z,20.69
2022-08-09T17:48:40.354Z,20.56
2022-08-09T17:51:18.470Z,20.26
2022-08-09T17:53:53.645Z,20.05
2022-08-09T17:56:27.268Z,20.55
2022-08-09T17:59:01.185Z,20.57
2022-08-09T18:02:03.888Z,20.57
2022-08-09T18:04:19.764Z,20.44
2022-08-09T18:06:55.285Z,20.20
2022-08-09T18:09:40.446Z,20.56
2022-08-09T18:12:19.594Z,20.12
2022-08-09T18:14:53.786Z,20.46
2022-08-09T18:17:27.215Z,20.45
2022-08-09T18:20:55.556Z,20.29
2022-08-09T18:23:05.262Z,19.99
2022-08-09T18:25:50.869Z,20.37
2022-08-09T18:30:42.198Z,20.31
2022-08-09T18:31:10.237Z,20.32
2022-08-09T18:33:37.342Z,20.35
2022-08-09T18:36:08.752Z,20.14
2022-08-09T18:38:41.660Z,20.25
2022-08-09T18:41:08.903Z,20.15
2022-08-09T18:43:36.623Z,19.65
2022-08-09T18:46:50.002Z,20.25
2022-08-09T18:49:06.952Z,20.09
2022-08-09T18:51:38.642Z,20.01
2022-08-09T18:54:29.935Z,19.99
2022-08-09T18:57:06.310Z,20.07
2022-08-09T18:59:49.220Z,19.94
2022-08-09T19:02:20.377Z,20.01
2022-08-09T19:05:04.489Z,19.14
2022-08-09T19:07:34.867Z,20.04
2022-08-09T19:10:17.354Z,20.00
2022-08-09T19:12:56.643Z,19.85
2022-08-09T19:15:33.720Z,19.97
2022-08-09T19:18:02.136Z,19.90
2022-08-09T19:20:39.014Z,19.74
2022-08-09T19:23:16.774Z,19.91
2022-08-09T19:26:02.202Z,19.70
2022-08-09T19:28:32.013Z,19.81
2022-08-09T19:30:59.439Z,19.52
2022-08-09T19:33:27.035Z,19.58
2022-08-09T19:35:57.179Z,18.89
2022-08-09T19:38:25.037Z,19.76
2022-08-09T19:40:52.873Z,19.73
2022-08-09T19:43:58.062Z,19.54
2022-08-09T19:46:13.473Z,19.66
2022-08-09T19:49:02.603Z,19.62
2022-08-09T19:51:31.117Z,19.79
2022-08-09T19:53:59.548Z,19.09
2022-08-09T19:56:28.550Z,19.53
2022-08-09T19:59:39.894Z,18.98
2022-08-09T20:02:03.363Z,19.51
2022-08-09T20:04:37.584Z,19.15
2022-08-09T20:07:20.905Z,19.40
2022-08-09T20:09:48.984Z,19.43
2022-08-09T20:12:27.078Z,19.45
2022-08-09T20:16:31.652Z,19.21
2022-08-09T20:17:54.487Z,19.35
2022-08-09T20:20:22.270Z,19.05
2022-08-09T20:22:56.052Z,19.31
2022-08-09T20:25:24.160Z,18.81
2022-08-09T20:27:53.607Z,19.23
2022-08-09T20:30:24.001Z,19.20
2022-08-09T20:32:52.905Z,19.17
2022-08-09T20:35:21.572Z,19.10
2022-08-09T20:38:23.368Z,19.12
2022-08-09T20:40:36.007Z,19.00
2022-08-09T20:43:17.950Z,18.95
2022-08-09T20:46:01.452Z,19.07
2022-08-09T20:48:39.286Z,19.00
2022-08-09T20:51:07.368Z,19.03
2022-08-09T20:53:43.917Z,18.98
2022-08-09T20:56:21.020Z,18.78
2022-08-09T20:58:50.727Z,18.84
2022-08-09T21:01:35.398Z,18.53
2022-08-09T21:05:54.280Z,18.92
2022-08-09T21:06:56.124Z,18.84
2022-08-09T21:09:25.011Z,18.64
2022-08-09T21:14:42.630Z,18.78
2022-08-09T21:18:23.905Z,18.33
2022-08-09T21:20:18.717Z,18.38
2022-08-09T21:22:53.965Z,18.71
2022-08-09T21:25:44.033Z,18.72
2022-08-09T21:28:33.452Z,18.59
2022-08-09T21:31:16.326Z,18.57
2022-08-09T21:33:51.341Z,18.45
2022-08-09T21:36:24.937Z,18.63
2022-08-09T21:38:57.378Z,18.61
2022-08-09T21:42:00.332Z,18.06
2022-08-09T21:44:32.751Z,18.33
2022-08-09T21:47:08.723Z,18.39
2022-08-09T21:49:42.711Z,17.97
2022-08-09T21:52:17.767Z,18.27
2022-08-09T21:54:49.517Z,18.27
2022-08-09T21:57:37.828Z,18.38
2022-08-09T22:00:11.302Z,18.25
2022-08-09T22:02:42.832Z,18.39
2022-08-09T22:05:22.742Z,18.38
2022-08-09T22:07:53.345Z,17.87
2022-08-09T22:10:23.154Z,18.25
2022-08-09T22:12:52.154Z,18.36
2022-08-09T22:15:20.631Z,18.30
2022-08-09T22:17:50.783Z,18.36
2022-08-09T22:20:21.841Z,17.97
2022-08-09T22:22:54.816Z,18.33
2022-08-09T22:26:05.422Z,17.91
2022-08-09T22:28:09.009Z,18.26
2022-08-09T22:30:36.541Z,17.86
2022-08-09T22:33:09.258Z,18.04
2022-08-09T22:36:01.109Z,18.03
2022-08-09T22:38:24.802Z,18.02
2022-08-09T22:40:57.499Z,18.21
2022-08-09T22:44:01.622Z,17.13
2022-08-09T22:48:12.378Z,17.79
2022-08-09T22:49:10.291Z,18.43
2022-08-09T22:51:43.306Z,17.92
2022-08-09T22:54:21.417Z,18.19
2022-08-09T22:56:54.619Z,17.76
2022-08-09T22:59:58.383Z,18.15
2022-08-09T23:02:15.828Z,18.04
2022-08-09T23:04:54.252Z,17.98
2022-08-09T23:08:29.103Z,18.03
2022-08-09T23:10:29.327Z,17.77
2022-08-09T23:12:56.624Z,17.90
2022-08-09T23:15:23.848Z,17.94
2022-08-09T23:17:50.844Z,17.82
2022-08-09T23:20:17.858Z,17.96
2022-08-09T23:22:44.854Z,17.36
2022-08-09T23:25:11.941Z,17.78
2022-08-09T23:27:57.439Z,17.90
2022-08-09T23:30:25.930Z,17.91
2022-08-09T23:32:52.891Z,17.90
2022-08-09T23:35:19.917Z,17.88
2022-08-09T23:37:47.045Z,17.68
2022-08-09T23:40:14.708Z,17.80
2022-08-09T23:42:41.655Z,17.77
2022-08-09T23:45:11.092Z,17.52
2022-08-09T23:47:58.067Z,17.14
2022-08-09T23:50:25.423Z,17.25
2022-08-09T23:52:52.564Z,17.43
2022-08-09T23:55:19.856Z,17.69
2022-08-09T23:58:08.230Z,17.67
